Time;durP1;ratioP1;P1;durP2;ratioP2;P2;SDS_P1;SDS_P2;PMS_P1;PMS_P2;Temp;Humidity;BMP_temperature;BMP_pressure;BME280_temperature;BME280_humidity;BME280_pressure;Samples;Min_cycle;Max_cycle;Signal;HPM_P1;HPM_P2
2021/01/02 00:01:17;;;;;;;3.95;2.58;;;20.80;45.60;;;;;;5110937;28;20035;-47
2021/01/02 00:04:06;;;;;;;16.13;4.53;;;20.80;45.60;;;;;;5111125;28;20039;-39
2021/01/02 00:06:53;;;;;;;4.13;2.67;;;20.80;45.60;;;;;;5110454;28;20048;-43
2021/01/02 00:09:23;;;;;;;2.80;2.50;;;20.80;45.50;;;;;;5112115;28;20116;-45
2021/01/02 00:12:08;;;;;;;4.65;2.72;;;20.80;45.60;;;;;;5111769;28;20049;-38
2021/01/02 00:14:51;;;;;;;4.88;2.72;;;20.80;45.60;;;;;;5110104;28;20082;-46
2021/01/02 00:17:22;;;;;;;4.47;2.60;;;20.80;45.50;;;;;;5111088;28;20028;-37
2021/01/02 00:20:03;;;;;;;4.05;2.70;;;20.80;45.40;;;;;;5110133;28;20103;-42
2021/01/02 00:22:32;;;;;;;3.85;2.40;;;20.80;45.40;;;;;;5124902;27;20036;-47
2021/01/02 00:25:02;;;;;;;3.28;2.28;;;20.70;45.40;;;;;;5111672;28;20084;-45
2021/01/02 00:27:37;;;;;;;3.30;2.60;;;20.70;45.40;;;;;;5108989;28;20062;-44
2021/01/02 00:30:08;;;;;;;4.20;2.60;;;20.70;45.40;;;;;;5112211;28;20102;-41
2021/01/02 00:32:45;;;;;;;3.75;2.50;;;20.70;45.30;;;;;;5109397;28;20591;-45
2021/01/02 00:35:17;;;;;;;4.63;2.58;;;20.70;45.40;;;;;;5109916;28;20047;-47
2021/01/02 00:37:46;;;;;;;3.72;2.30;;;20.70;45.30;;;;;;5110765;28;20099;-45
2021/01/02 00:40:19;;;;;;;3.28;2.70;;;20.70;45.40;;;;;;5111706;28;20028;-55
2021/01/02 00:42:47;;;;;;;3.63;2.20;;;20.70;45.30;;;;;;5110321;28;20036;-42
2021/01/02 00:45:24;;;;;;;3.35;2.63;;;20.70;45.30;;;;;;5111878;27;20024;-45
2021/01/02 00:47:50;;;;;;;4.50;2.47;;;20.70;45.30;;;;;;5111804;27;20507;-44
2021/01/02 00:50:18;;;;;;;4.28;2.75;;;20.70;45.30;;;;;;5112152;28;20026;-42
2021/01/02 00:52:46;;;;;;;3.65;3.03;;;20.70;45.30;;;;;;5110725;28;20039;-50
2021/01/02 00:55:14;;;;;;;3.88;2.47;;;20.60;45.30;;;;;;5111730;28;20023;-44
2021/01/02 00:57:49;;;;;;;3.42;2.63;;;20.70;45.30;;;;;;5110272;28;20105;-48
2021/01/02 01:00:19;;;;;;;4.60;2.65;;;20.70;45.30;;;;;;5110517;28;20032;-44
2021/01/02 01:03:35;;;;;;;3.20;2.50;;;20.70;45.20;;;;;;5108998;28;20027;-55
2021/01/02 01:06:04;;;;;;;3.92;2.70;;;20.70;45.20;;;;;;5083844;28;20046;-41
2021/01/02 01:08:33;;;;;;;4.20;3.08;;;20.60;45.10;;;;;;5108977;28;20031;-43
2021/01/02 01:11:08;;;;;;;5.55;2.88;;;20.70;45.10;;;;;;5111317;28;20667;-48
2021/01/02 01:13:36;;;;;;;4.13;2.58;;;20.60;45.00;;;;;;5109533;28;20039;-44
2021/01/02 01:16:03;;;;;;;3.28;2.30;;;20.60;45.10;;;;;;5110955;28;20031;-55
2021/01/02 01:18:40;;;;;;;4.28;2.80;;;20.60;45.10;;;;;;5110515;28;20023;-54
2021/01/02 01:21:13;;;;;;;3.80;2.63;;;20.60;45.00;;;;;;5111042;28;20020;-44
2021/01/02 01:23:56;;;;;;;3.65;2.80;;;20.70;45.00;;;;;;5110520;28;20036;-40
2021/01/02 01:26:43;;;;;;;3.83;2.58;;;20.60;44.90;;;;;;5110173;28;20031;-56
2021/01/02 01:29:27;;;;;;;4.53;3.03;;;20.60;45.00;;;;;;5108593;28;20020;-42
2021/01/02 01:31:59;;;;;;;4.25;2.90;;;20.60;44.90;;;;;;5109541;28;20424;-37
2021/01/02 01:34:27;;;;;;;4.32;2.60;;;20.60;44.90;;;;;;5107275;28;20369;-47
2021/01/02 01:36:54;;;;;;;4.05;2.72;;;20.60;44.90;;;;;;5110728;28;20519;-38
2021/01/02 01:39:23;;;;;;;5.13;2.58;;;20.60;44.90;;;;;;5110948;28;20118;-50
2021/01/02 01:41:57;;;;;;;3.42;2.55;;;20.60;44.80;;;;;;5110239;28;20023;-39
2021/01/02 01:44:58;;;;;;;4.93;2.90;;;20.60;44.80;;;;;;5109980;28;20032;-57
2021/01/02 01:47:39;;;;;;;3.83;2.78;;;20.60;44.80;;;;;;5109550;28;20075;-53
2021/01/02 01:50:27;;;;;;;3.97;2.60;;;20.60;44.80;;;;;;5109215;28;20023;-46
2021/01/02 01:53:31;;;;;;;3.38;2.58;;;20.60;44.70;;;;;;5107970;28;20077;-53
2021/01/02 01:56:09;;;;;;;4.18;3.17;;;20.60;44.70;;;;;;5109266;28;20020;-36
2021/01/02 01:58:46;;;;;;;3.38;2.65;;;20.60;44.70;;;;;;5108692;28;20388;-41
2021/01/02 02:01:20;;;;;;;4.82;2.78;;;20.60;44.70;;;;;;5142245;27;20457;-37
2021/01/02 02:04:34;;;;;;;3.45;2.50;;;20.60;44.70;;;;;;5143283;27;20040;-49
2021/01/02 02:07:01;;;;;;;4.53;2.67;;;20.60;44.70;;;;;;5106394;28;20092;-44
2021/01/02 02:09:42;;;;;;;4.55;3.00;;;20.60;44.60;;;;;;5109483;28;20028;-50
2021/01/02 02:12:34;;;;;;;4.97;3.05;;;20.60;44.60;;;;;;5110517;28;20051;-39
2021/01/02 02:15:00;;;;;;;3.50;3.00;;;20.60;44.60;;;;;;5103492;28;20040;-44
2021/01/02 02:17:27;;;;;;;4.63;2.92;;;20.60;44.60;;;;;;5108552;28;20046;-39
2021/01/02 02:20:03;;;;;;;4.15;3.00;;;20.60;44.50;;;;;;5113217;28;20023;-54
2021/01/02 02:22:35;;;;;;;4.25;2.85;;;20.60;44.50;;;;;;5111743;28;20035;-55
2021/01/02 02:25:03;;;;;;;5.95;3.33;;;20.70;44.60;;;;;;5114398;28;20957;-44
2021/01/02 02:27:30;;;;;;;5.05;3.25;;;20.60;45.10;;;;;;5113629;28;20027;-38
2021/01/02 02:30:11;;;;;;;3.85;2.88;;;20.60;44.50;;;;;;5114094;27;20472;-45
2021/01/02 02:32:40;;;;;;;5.05;3.00;;;20.70;44.50;;;;;;5113764;28;20031;-50
2021/01/02 02:35:17;;;;;;;6.53;3.20;;;20.70;44.50;;;;;;5111837;28;20030;-53
2021/01/02 02:37:46;;;;;;;4.22;3.22;;;20.70;44.50;;;;;;5113579;28;20342;-39
2021/01/02 02:40:17;;;;;;;4.00;3.00;;;20.70;44.50;;;;;;5113731;28;20483;-50
2021/01/02 02:42:54;;;;;;;3.67;2.53;;;20.60;44.40;;;;;;5112737;27;20032;-53
2021/01/02 02:45:23;;;;;;;3.97;2.75;;;20.70;44.40;;;;;;5112926;28;20450;-56
2021/01/02 02:47:51;;;;;;;4.30;3.13;;;20.70;44.40;;;;;;5113642;28;20032;-44
2021/01/02 02:50:24;;;;;;;4.85;3.25;;;20.70;44.40;;;;;;5113641;28;20019;-49
2021/01/02 02:53:12;;;;;;;4.30;3.03;;;20.60;44.30;;;;;;5112161;28;20085;-49
2021/01/02 02:55:39;;;;;;;5.82;3.17;;;20.70;44.40;;;;;;5111759;28;20015;-46
2021/01/02 02:58:06;;;;;;;5.10;3.13;;;20.70;44.30;;;;;;5113100;28;20020;-45
2021/01/02 03:00:33;;;;;;;3.72;2.92;;;20.70;44.30;;;;;;5111730;28;20552;-43
2021/01/02 03:02:58;;;;;;;4.82;3.17;;;20.70;44.30;;;;;;5113578;28;20503;-56
2021/01/02 03:05:24;;;;;;;5.47;2.92;;;20.70;44.30;;;;;;5111594;28;20028;-54
2021/01/02 03:07:50;;;;;;;4.88;3.20;;;20.70;44.30;;;;;;5111274;28;20019;-38
2021/01/02 03:10:20;;;;;;;4.50;3.28;;;20.70;44.20;;;;;;5112423;27;20027;-40
2021/01/02 03:12:51;;;;;;;4.60;3.08;;;20.70;44.30;;;;;;5112119;28;20030;-46
2021/01/02 03:15:18;;;;;;;4.95;3.22;;;20.70;44.20;;;;;;5109816;28;20161;-44
2021/01/02 03:17:48;;;;;;;3.53;2.58;;;20.70;44.20;;;;;;5111899;28;20032;-48
2021/01/02 03:20:15;;;;;;;4.18;3.05;;;20.70;44.20;;;;;;5109468;28;20028;-47
2021/01/02 03:22:43;;;;;;;3.80;2.80;;;20.70;44.20;;;;;;5111389;28;20031;-43
2021/01/02 03:25:10;;;;;;;3.92;3.10;;;20.70;44.20;;;;;;5111941;28;20027;-54
2021/01/02 03:27:36;;;;;;;3.58;2.80;;;20.70;44.10;;;;;;5111415;28;20111;-41
2021/01/02 03:30:07;;;;;;;4.15;2.75;;;20.70;44.20;;;;;;5110836;28;20036;-48
2021/01/02 03:32:34;;;;;;;3.88;2.88;;;20.70;44.20;;;;;;5110330;28;20039;-39
2021/01/02 03:35:00;;;;;;;3.97;2.85;;;20.70;44.10;;;;;;5112286;28;20094;-46
2021/01/02 03:37:26;;;;;;;4.60;3.00;;;20.70;44.10;;;;;;5111120;28;20123;-54
2021/01/02 03:39:52;;;;;;;4.05;2.75;;;20.70;44.10;;;;;;5112126;27;20099;-51
2021/01/02 03:42:17;;;;;;;4.80;3.42;;;20.70;44.10;;;;;;5112045;28;20150;-42
2021/01/02 03:44:43;;;;;;;4.72;3.63;;;20.70;44.10;;;;;;5111363;28;20031;-40
2021/01/02 03:47:09;;;;;;;4.38;2.92;;;20.70;44.10;;;;;;5111857;27;20514;-45
2021/01/02 03:49:36;;;;;;;5.45;2.85;;;20.70;44.00;;;;;;5110678;28;20038;-50
2021/01/02 03:52:06;;;;;;;4.30;2.83;;;20.70;44.10;;;;;;5111840;28;20054;-42
2021/01/02 03:54:32;;;;;;;5.10;3.28;;;20.70;44.00;;;;;;5111245;28;20027;-40
2021/01/02 03:56:58;;;;;;;4.07;2.83;;;20.70;44.00;;;;;;5111672;28;20030;-54
2021/01/02 03:59:24;;;;;;;5.20;3.63;;;20.70;44.00;;;;;;5110962;28;20032;-53
2021/01/02 04:01:57;;;;;;;4.68;3.20;;;20.70;44.00;;;;;;5114230;27;20035;-45
2021/01/02 04:04:23;;;;;;;4.28;3.13;;;20.70;44.00;;;;;;5131242;27;20045;-54
2021/01/02 04:06:51;;;;;;;4.05;3.10;;;20.70;44.00;;;;;;5113527;27;20039;-44
2021/01/02 04:09:17;;;;;;;5.35;3.05;;;20.70;43.90;;;;;;5112293;28;20016;-50
2021/01/02 04:11:44;;;;;;;3.63;2.90;;;20.70;43.90;;;;;;5104179;28;20614;-49
2021/01/02 04:14:10;;;;;;;4.40;3.00;;;20.70;43.90;;;;;;5113093;28;20379;-42
2021/01/02 04:16:37;;;;;;;4.25;2.88;;;20.70;43.90;;;;;;5112322;28;20509;-46
2021/01/02 04:19:04;;;;;;;3.97;3.20;;;20.70;43.90;;;;;;5113175;28;20023;-43
2021/01/02 04:21:30;;;;;;;4.63;3.30;;;20.70;43.90;;;;;;5112389;28;20027;-36
2021/01/02 04:23:56;;;;;;;4.00;2.80;;;20.80;43.90;;;;;;5115821;27;20080;-49
2021/01/02 04:26:23;;;;;;;4.22;3.10;;;20.80;44.10;;;;;;5112670;28;20058;-55
2021/01/02 04:28:52;;;;;;;5.95;3.35;;;20.80;44.10;;;;;;5112145;28;20027;-47
2021/01/02 04:31:19;;;;;;;4.28;3.00;;;20.80;44.30;;;;;;5104936;28;20039;-47
2021/01/02 04:33:45;;;;;;;7.45;4.10;;;20.80;44.40;;;;;;5112245;28;20031;-44
2021/01/02 04:36:17;;;;;;;5.30;2.70;;;20.80;44.40;;;;;;5112437;28;20034;-43
2021/01/02 04:38:43;;;;;;;3.65;2.97;;;20.80;44.40;;;;;;5111999;28;20039;-47
2021/01/02 04:41:13;;;;;;;5.25;3.00;;;20.80;44.50;;;;;;5112679;28;20034;-41
2021/01/02 04:43:40;;;;;;;5.13;2.95;;;20.80;44.50;;;;;;5111656;27;20042;-41
2021/01/02 04:46:06;;;;;;;5.85;3.30;;;20.90;44.70;;;;;;5113607;28;20019;-47
2021/01/02 04:48:32;;;;;;;4.18;2.60;;;21.00;44.40;;;;;;5112101;28;20020;-43
2021/01/02 04:50:58;;;;;;;6.13;3.25;;;21.00;44.60;;;;;;5104659;28;20430;-39
2021/01/02 04:53:24;;;;;;;4.90;3.60;;;21.00;44.30;;;;;;5116128;27;20379;-56
2021/01/02 04:55:51;;;;;;;6.20;2.80;;;21.00;44.40;;;;;;5113770;27;20028;-43
2021/01/02 04:58:18;;;;;;;4.80;2.83;;;21.00;44.40;;;;;;5110784;28;20037;-55
2021/01/02 05:00:47;;;;;;;3.90;2.40;;;21.10;44.30;;;;;;5108646;28;20085;-41
2021/01/02 05:03:12;;;;;;;4.05;2.67;;;21.10;44.20;;;;;;5112118;28;20119;-43
2021/01/02 05:05:39;;;;;;;3.95;2.58;;;21.10;44.10;;;;;;5111507;28;20122;-41
2021/01/02 05:08:06;;;;;;;6.32;2.50;;;21.10;44.10;;;;;;5112113;28;20055;-40
2021/01/02 05:10:31;;;;;;;3.70;2.60;;;21.20;44.10;;;;;;5110496;28;20031;-44
2021/01/02 05:13:12;;;;;;;4.43;2.85;;;21.10;44.00;;;;;;5112203;28;20473;-41
2021/01/02 05:15:38;;;;;;;4.13;2.50;;;21.20;44.10;;;;;;5111107;28;20548;-38
2021/01/02 05:18:05;;;;;;;4.72;2.58;;;21.20;43.90;;;;;;5112113;28;20098;-41
2021/01/02 05:20:31;;;;;;;6.18;2.80;;;21.20;43.90;;;;;;5110688;28;20015;-42
2021/01/02 05:23:10;;;;;;;2.97;2.60;;;21.20;44.10;;;;;;5112416;27;20076;-43
2021/01/02 05:25:37;;;;;;;2.88;2.40;;;21.30;43.90;;;;;;5113749;27;20055;-42
2021/01/02 05:28:03;;;;;;;3.65;2.70;;;21.30;43.80;;;;;;5112029;28;20027;-42
2021/01/02 05:30:33;;;;;;;4.13;2.63;;;21.30;43.80;;;;;;5110382;28;20036;-44
2021/01/02 05:33:04;;;;;;;3.00;2.35;;;21.30;43.80;;;;;;5111585;28;20092;-45
2021/01/02 05:35:35;;;;;;;3.80;2.65;;;21.30;44.00;;;;;;5111021;28;20036;-44
2021/01/02 05:38:14;;;;;;;4.32;2.38;;;21.30;43.70;;;;;;5111382;28;20529;-41
2021/01/02 05:40:54;;;;;;;3.55;2.70;;;21.40;43.70;;;;;;5111085;28;20426;-40
2021/01/02 05:43:26;;;;;;;3.10;2.53;;;21.40;43.70;;;;;;5111713;28;20519;-43
2021/01/02 05:45:52;;;;;;;3.60;2.58;;;21.30;43.70;;;;;;5111249;28;20032;-44
2021/01/02 05:48:22;;;;;;;3.55;2.42;;;21.40;43.70;;;;;;5111611;28;20047;-44
2021/01/02 05:50:57;;;;;;;3.05;2.60;;;21.30;43.70;;;;;;5111216;28;20051;-40
2021/01/02 05:53:35;;;;;;;4.00;2.63;;;21.30;43.70;;;;;;5114095;28;20160;-36
2021/01/02 05:56:12;;;;;;;2.90;2.58;;;21.30;43.60;;;;;;5114941;27;20023;-43
2021/01/02 05:58:46;;;;;;;3.30;2.50;;;21.30;43.70;;;;;;5113086;28;20046;-44
2021/01/02 06:01:17;;;;;;;3.17;2.50;;;21.30;43.70;;;;;;5116274;28;20031;-42
2021/01/02 06:03:48;;;;;;;4.22;2.42;;;21.30;43.50;;;;;;5113617;28;20038;-49
2021/01/02 06:06:19;;;;;;;3.78;2.65;;;21.40;43.60;;;;;;5115503;28;20047;-39
2021/01/02 06:08:47;;;;;;;3.10;2.60;;;21.40;43.50;;;;;;5112855;28;20024;-39
2021/01/02 06:11:15;;;;;;;3.28;2.53;;;21.30;43.50;;;;;;5112587;27;20027;-46
2021/01/02 06:13:43;;;;;;;4.07;2.97;;;21.30;43.50;;;;;;5114889;28;20024;-43
2021/01/02 06:16:09;;;;;;;3.47;2.45;;;21.30;43.50;;;;;;5114555;28;20032;-41
2021/01/02 06:18:40;;;;;;;3.08;2.50;;;21.30;43.50;;;;;;5121113;27;20065;-41
2021/01/02 06:21:08;;;;;;;3.90;2.95;;;21.30;43.40;;;;;;5114866;28;20059;-41
2021/01/02 06:23:35;;;;;;;3.22;2.60;;;21.40;43.40;;;;;;5119870;27;20039;-50
2021/01/02 06:26:04;;;;;;;5.70;2.70;;;21.40;43.40;;;;;;5115077;27;20054;-47
2021/01/02 06:28:35;;;;;;;3.75;2.97;;;21.40;43.30;;;;;;5114812;27;20031;-54
2021/01/02 06:31:02;;;;;;;3.88;2.97;;;21.40;43.30;;;;;;5115234;28;20035;-41
2021/01/02 06:33:28;;;;;;;3.67;2.67;;;21.40;43.30;;;;;;5115180;28;20027;-43
2021/01/02 06:35:55;;;;;;;3.58;2.90;;;21.40;43.30;;;;;;5114481;28;20084;-43
2021/01/02 06:38:21;;;;;;;3.95;3.08;;;21.40;43.30;;;;;;5115069;27;20027;-51
2021/01/02 06:40:48;;;;;;;4.43;3.08;;;21.40;43.30;;;;;;5114690;28;20031;-45
2021/01/02 06:43:25;;;;;;;3.13;2.70;;;21.40;43.40;;;;;;5114759;27;20032;-47
2021/01/02 06:45:53;;;;;;;4.55;3.67;;;21.40;43.10;;;;;;5112505;28;20035;-52
2021/01/02 06:48:25;;;;;;;7.22;5.60;;;21.30;41.00;;;;;;5115017;28;20107;-50
2021/01/02 06:50:53;;;;;;;12.05;8.63;;;21.20;40.20;;;;;;5114260;28;20032;-46
2021/01/02 06:53:25;;;;;;;11.68;8.18;;;21.00;35.60;;;;;;5114891;27;20519;-50
2021/01/02 06:56:03;;;;;;;15.75;10.27;;;20.80;34.30;;;;;;5114307;28;20096;-44
2021/01/02 06:58:44;;;;;;;13.18;10.05;;;20.60;33.30;;;;;;5113218;28;20035;-44
2021/01/02 07:01:16;;;;;;;12.50;8.60;;;20.40;32.80;;;;;;5113311;28;20027;-47
2021/01/02 07:03:42;;;;;;;14.25;10.52;;;20.40;32.90;;;;;;5113732;28;20381;-46
2021/01/02 07:06:23;;;;;;;14.70;10.02;;;20.20;32.30;;;;;;5113612;28;20507;-42
2021/01/02 07:08:56;;;;;;;13.82;10.18;;;20.20;32.70;;;;;;5108594;28;20032;-38
2021/01/02 07:11:24;;;;;;;14.05;10.07;;;20.10;32.30;;;;;;5114566;28;20024;-45
2021/01/02 07:14:11;;;;;;;12.95;10.25;;;20.00;32.00;;;;;;5113875;27;20058;-41
2021/01/02 07:16:58;;;;;;;12.93;9.43;;;20.00;31.80;;;;;;5113098;28;20043;-38
2021/01/02 07:19:27;;;;;;;13.45;9.82;;;19.90;31.90;;;;;;5114937;27;20122;-50
2021/01/02 07:22:15;;;;;;;14.32;10.40;;;19.90;31.90;;;;;;5125983;27;20075;-44
2021/01/02 07:25:08;;;;;;;13.18;9.65;;;19.80;31.80;;;;;;5118961;27;20031;-46
2021/01/02 07:27:39;;;;;;;13.07;9.85;;;19.70;31.80;;;;;;5113831;28;20364;-56
2021/01/02 07:30:10;;;;;;;13.02;10.07;;;19.70;31.80;;;;;;5114187;28;20081;-37
2021/01/02 07:32:41;;;;;;;15.43;10.90;;;19.60;31.70;;;;;;5113563;28;20024;-53
2021/01/02 07:35:09;;;;;;;14.10;10.80;;;19.60;31.70;;;;;;5113651;28;20046;-40
2021/01/02 07:37:37;;;;;;;12.88;10.10;;;19.60;31.70;;;;;;5113003;28;20035;-53
2021/01/02 07:40:06;;;;;;;13.70;9.85;;;19.60;31.70;;;;;;5114848;27;20031;-40
2021/01/02 07:42:34;;;;;;;12.18;9.13;;;19.70;32.60;;;;;;5128706;27;20104;-41
2021/01/02 07:45:02;;;;;;;10.52;7.55;;;20.00;33.00;;;;;;5113388;28;20032;-49
2021/01/02 07:47:28;;;;;;;9.30;7.47;;;20.20;33.60;;;;;;5113758;28;20031;-43
2021/01/02 07:50:09;;;;;;;8.07;6.55;;;20.30;34.00;;;;;;5113069;28;20218;-37
2021/01/02 07:52:36;;;;;;;9.60;7.30;;;20.50;34.30;;;;;;5113231;28;20050;-57
2021/01/02 07:55:11;;;;;;;7.05;5.88;;;20.60;34.70;;;;;;5115693;27;20024;-49
2021/01/02 07:57:37;;;;;;;7.03;5.63;;;20.70;35.60;;;;;;5112543;27;20520;-53
2021/01/02 08:00:07;;;;;;;9.75;5.43;;;20.70;35.60;;;;;;5119494;27;20040;-42
2021/01/02 08:02:33;;;;;;;8.20;6.30;;;20.80;35.70;;;;;;5113436;28;20046;-41
2021/01/02 08:04:58;;;;;;;6.72;4.70;;;20.80;36.20;;;;;;5112570;28;20169;-43
2021/01/02 08:07:24;;;;;;;5.45;4.50;;;20.90;36.30;;;;;;5113382;28;20131;-45
2021/01/02 08:09:50;;;;;;;4.97;4.10;;;21.00;36.40;;;;;;5111481;28;20085;-45
2021/01/02 08:12:17;;;;;;;5.57;4.32;;;21.00;36.40;;;;;;5113452;28;20068;-48
2021/01/02 08:14:48;;;;;;;7.60;4.68;;;21.00;36.60;;;;;;5112627;28;20424;-40
2021/01/02 08:17:16;;;;;;;5.38;4.15;;;21.10;36.70;;;;;;5112666;28;20453;-42
2021/01/02 08:19:47;;;;;;;4.70;3.92;;;21.10;36.70;;;;;;5112685;28;20026;-45
2021/01/02 08:22:25;;;;;;;5.43;4.07;;;21.10;36.70;;;;;;5112557;28;20047;-42
2021/01/02 08:24:58;;;;;;;8.55;4.45;;;21.20;36.90;;;;;;5112730;27;20039;-39
2021/01/02 08:27:24;;;;;;;5.93;4.18;;;21.20;37.00;;;;;;5112734;28;20054;-47
2021/01/02 08:29:52;;;;;;;5.47;3.90;;;21.20;37.20;;;;;;5112649;28;20032;-43
2021/01/02 08:32:20;;;;;;;4.97;4.28;;;21.20;37.40;;;;;;5111585;28;20028;-40
2021/01/02 08:34:46;;;;;;;13.02;4.05;;;21.20;37.40;;;;;;5111001;28;20100;-44
2021/01/02 08:37:14;;;;;;;4.82;4.05;;;21.20;37.60;;;;;;5112835;28;20047;-42
2021/01/02 08:39:41;;;;;;;6.50;3.72;;;21.20;37.60;;;;;;5111888;27;20027;-45
2021/01/02 08:42:08;;;;;;;4.57;3.50;;;21.30;37.90;;;;;;5112148;28;20093;-43
2021/01/02 08:44:46;;;;;;;5.35;3.65;;;21.20;37.80;;;;;;5116589;27;20088;-40
2021/01/02 08:47:27;;;;;;;5.22;3.85;;;21.20;37.90;;;;;;5112679;28;20102;-42
2021/01/02 08:49:53;;;;;;;3.95;3.53;;;21.30;38.20;;;;;;5111771;28;20111;-37
2021/01/02 08:52:24;;;;;;;6.95;3.63;;;21.20;38.20;;;;;;5110911;28;20114;-50
2021/01/02 08:55:07;;;;;;;7.22;3.50;;;21.20;38.30;;;;;;5112090;27;20032;-38
2021/01/02 08:57:54;;;;;;;6.88;3.60;;;21.30;38.50;;;;;;5112775;28;20028;-44
2021/01/02 09:00:22;;;;;;;5.93;3.15;;;21.30;38.70;;;;;;5110317;28;20489;-48
2021/01/02 09:03:07;;;;;;;6.03;3.70;;;21.30;38.70;;;;;;5111799;28;20039;-44
2021/01/02 09:05:35;;;;;;;4.40;2.95;;;21.20;38.90;;;;;;5112003;28;20058;-44
2021/01/02 09:08:06;;;;;;;4.90;3.38;;;21.20;39.20;;;;;;5111118;28;20047;-41
2021/01/02 09:10:37;;;;;;;5.40;4.00;;;21.20;39.40;;;;;;5112246;28;20027;-45
2021/01/02 09:13:23;;;;;;;5.13;3.40;;;21.20;39.50;;;;;;5111895;28;20039;-47
2021/01/02 09:15:54;;;;;;;4.63;2.85;;;21.10;39.60;;;;;;5111568;28;20119;-47
2021/01/02 09:18:32;;;;;;;3.22;2.90;;;21.10;39.70;;;;;;5111975;28;20099;-56
2021/01/02 09:21:14;;;;;;;4.38;2.50;;;21.10;39.80;;;;;;5104664;28;20031;-45
2021/01/02 09:23:40;;;;;;;;;;;21.10;39.90;;;;;;5116391;27;20027;-63
2021/01/02 09:26:22;;;;;;;4.32;2.78;;;21.10;40.10;;;;;;5112322;28;19912;-48
2021/01/02 09:28:49;;;;;;;6.97;5.30;;;21.20;39.90;;;;;;5107068;28;20028;-43
2021/01/02 09:31:14;;;;;;;9.57;7.43;;;21.00;36.70;;;;;;5110201;28;20055;-51
2021/01/02 09:33:40;;;;;;;13.85;10.00;;;20.00;33.00;;;;;;5110520;28;20051;-63
2021/01/02 09:36:06;;;;;;;9.13;7.00;;;19.20;33.70;;;;;;5110889;28;20380;-44
2021/01/02 09:38:32;;;;;;;14.60;6.32;;;19.40;35.10;;;;;;5111445;28;20027;-45
2021/01/02 09:40:58;;;;;;;7.43;5.70;;;19.80;36.20;;;;;;5110251;28;20092;-47
2021/01/02 09:43:24;;;;;;;7.22;4.78;;;20.10;36.90;;;;;;5092854;28;20074;-45
2021/01/02 09:45:50;;;;;;;8.02;4.75;;;20.30;37.20;;;;;;5110907;28;20023;-54
2021/01/02 09:48:17;;;;;;;6.00;4.40;;;20.50;37.30;;;;;;5110596;28;20522;-51
2021/01/02 09:50:43;;;;;;;5.00;4.15;;;20.60;37.60;;;;;;5107555;28;20024;-45
2021/01/02 09:53:09;;;;;;;9.65;3.60;;;20.60;37.70;;;;;;5107166;28;20413;-53
2021/01/02 09:55:35;;;;;;;5.75;3.65;;;20.60;38.00;;;;;;5110274;28;20034;-51
2021/01/02 09:58:01;;;;;;;7.72;3.78;;;20.70;38.20;;;;;;5103155;28;20053;-60
2021/01/02 10:00:29;;;;;;;5.38;3.70;;;20.70;38.50;;;;;;5108845;28;20422;-50
2021/01/02 10:02:56;;;;;;;4.75;3.40;;;20.70;38.80;;;;;;5098958;28;20126;-45
2021/01/02 10:05:23;;;;;;;5.15;3.33;;;20.80;38.80;;;;;;5110806;28;20065;-47
2021/01/02 10:07:49;;;;;;;4.38;3.40;;;20.80;38.90;;;;;;5109692;28;20043;-49
2021/01/02 10:10:17;;;;;;;4.28;3.25;;;20.80;39.00;;;;;;5110173;28;20457;-53
2021/01/02 10:12:44;;;;;;;7.60;3.88;;;20.90;39.30;;;;;;5109500;28;20533;-57
2021/01/02 10:15:10;;;;;;;6.13;3.67;;;20.90;39.50;;;;;;5109094;28;20020;-50
2021/01/02 10:17:36;;;;;;;6.35;3.55;;;20.90;39.60;;;;;;5109904;28;20033;-54
2021/01/02 10:20:04;;;;;;;4.32;3.00;;;20.90;39.70;;;;;;5109783;28;20602;-57
2021/01/02 10:22:30;;;;;;;4.32;3.08;;;20.90;40.60;;;;;;5110817;28;20035;-58
2021/01/02 10:24:56;;;;;;;5.05;2.90;;;20.90;40.20;;;;;;5106539;28;20038;-45
2021/01/02 10:27:24;;;;;;;6.95;3.25;;;21.00;40.40;;;;;;5109941;28;20036;-55
2021/01/02 10:29:52;;;;;;;7.80;3.80;;;21.10;40.30;;;;;;5108827;28;20031;-55
2021/01/02 10:32:19;;;;;;;5.30;3.28;;;21.10;40.70;;;;;;5111402;28;20422;-50
2021/01/02 10:34:45;;;;;;;8.23;2.60;;;21.10;41.00;;;;;;5112405;28;20392;-61
2021/01/02 10:37:13;;;;;;;5.63;3.10;;;21.10;41.10;;;;;;5117914;27;20027;-44
2021/01/02 10:39:39;;;;;;;8.35;3.30;;;21.10;41.40;;;;;;5111714;28;20016;-54
2021/01/02 10:42:06;;;;;;;7.82;3.88;;;21.10;41.80;;;;;;5113098;28;20160;-42
2021/01/02 10:44:31;;;;;;;3.95;3.13;;;21.10;41.80;;;;;;5115469;28;20109;-54
2021/01/02 10:46:59;;;;;;;7.63;3.33;;;21.10;41.80;;;;;;5112756;28;20023;-44
2021/01/02 10:49:25;;;;;;;13.82;3.25;;;21.10;42.00;;;;;;5114422;28;20024;-51
2021/01/02 10:51:51;;;;;;;11.77;3.20;;;21.20;42.60;;;;;;5113985;27;20070;-45
2021/01/02 10:54:18;;;;;;;10.50;2.88;;;21.20;42.40;;;;;;5115153;27;20026;-49
2021/01/02 10:56:52;;;;;;;11.43;8.90;;;21.20;42.40;;;;;;5114949;27;20032;-57
2021/01/02 10:59:21;;;;;;;11.43;8.80;;;18.90;33.00;;;;;;5115106;28;20407;-42
2021/01/02 11:01:53;;;;;;;12.68;9.80;;;16.50;36.10;;;;;;5112612;28;20054;-60
2021/01/02 11:04:21;;;;;;;13.15;9.48;;;15.60;37.80;;;;;;5113735;28;20031;-51
2021/01/02 11:06:50;;;;;;;12.73;9.07;;;15.00;38.80;;;;;;5114182;27;20476;-54
2021/01/02 11:09:17;;;;;;;17.23;7.88;;;15.60;38.90;;;;;;5114340;28;20024;-53
2021/01/02 11:11:43;;;;;;;9.25;6.88;;;17.20;37.50;;;;;;5114512;28;20053;-44
2021/01/02 11:14:10;;;;;;;8.80;6.07;;;18.20;36.70;;;;;;5113258;28;20039;-45
2021/01/02 11:16:44;;;;;;;7.70;5.53;;;18.90;36.70;;;;;;5116557;28;20032;-43
2021/01/02 11:19:16;;;;;;;7.65;5.00;;;19.30;36.70;;;;;;5113568;28;20027;-47
2021/01/02 11:21:42;;;;;;;7.88;4.90;;;19.60;36.70;;;;;;5114385;28;20023;-52
2021/01/02 11:24:08;;;;;;;8.43;4.35;;;19.80;37.00;;;;;;5112546;27;20265;-45
2021/01/02 11:26:34;;;;;;;13.80;4.47;;;19.90;38.00;;;;;;5114289;28;20028;-43
2021/01/02 11:29:00;;;;;;;16.52;4.75;;;20.00;37.60;;;;;;5113409;28;20073;-40
2021/01/02 11:31:31;;;;;;;9.40;3.95;;;20.20;39.20;;;;;;5113797;28;20036;-44
2021/01/02 11:33:57;;;;;;;6.10;3.45;;;20.20;39.00;;;;;;5113603;28;20024;-45
2021/01/02 11:36:23;;;;;;;6.57;3.60;;;20.30;39.30;;;;;;5119018;27;20023;-45
2021/01/02 11:38:49;;;;;;;5.25;3.30;;;20.30;39.30;;;;;;5133701;27;20107;-58
2021/01/02 11:41:18;;;;;;;12.55;3.83;;;20.30;40.10;;;;;;5123838;27;20028;-48
2021/01/02 11:43:45;;;;;;;10.82;3.00;;;20.40;39.60;;;;;;5125942;27;20472;-44
2021/01/02 11:46:11;;;;;;;7.55;3.22;;;20.50;39.70;;;;;;5134505;27;20015;-39
2021/01/02 11:48:40;;;;;;;6.72;3.17;;;20.50;39.80;;;;;;5132638;27;20038;-47
2021/01/02 11:51:12;;;;;;;5.35;2.97;;;20.60;39.90;;;;;;5115239;27;20097;-52
2021/01/02 11:53:38;;;;;;;5.00;2.65;;;20.60;40.00;;;;;;5121549;27;20030;-49
2021/01/02 11:56:05;;;;;;;4.60;2.55;;;20.60;40.00;;;;;;5130556;27;20031;-51
2021/01/02 11:58:32;;;;;;;3.45;2.65;;;20.60;40.00;;;;;;5134133;27;20034;-55
2021/01/02 12:00:57;;;;;;;4.15;2.58;;;20.70;40.10;;;;;;5133286;27;20076;-47
2021/01/02 12:03:23;;;;;;;6.70;3.13;;;20.70;40.20;;;;;;5125171;27;20119;-46
2021/01/02 12:05:48;;;;;;;6.78;3.28;;;20.70;40.20;;;;;;5133224;27;20283;-58
2021/01/02 12:08:14;;;;;;;4.72;2.60;;;20.70;40.30;;;;;;5126034;27;20523;-48
2021/01/02 12:10:40;;;;;;;4.60;2.60;;;20.80;40.40;;;;;;5133217;27;20034;-57
2021/01/02 12:13:05;;;;;;;6.30;2.58;;;20.70;40.30;;;;;;5113661;27;20588;-56
2021/01/02 12:15:31;;;;;;;6.95;2.90;;;20.90;40.30;;;;;;5112806;27;20488;-48
2021/01/02 12:17:57;;;;;;;5.22;3.00;;;20.90;40.30;;;;;;5112627;28;20438;-38
2021/01/02 12:20:23;;;;;;;9.27;2.67;;;20.90;40.40;;;;;;5113391;27;20102;-43
2021/01/02 12:22:49;;;;;;;14.77;2.40;;;20.90;40.40;;;;;;5107087;28;20038;-58
2021/01/02 12:25:15;;;;;;;5.32;2.63;;;21.00;40.60;;;;;;5114117;27;20391;-42
2021/01/02 12:27:40;;;;;;;15.40;2.85;;;20.90;40.50;;;;;;5112827;28;20034;-48
2021/01/02 12:30:08;;;;;;;5.90;2.42;;;21.00;40.60;;;;;;5111506;28;20613;-49
2021/01/02 12:32:33;;;;;;;9.50;2.60;;;21.00;40.70;;;;;;5112601;28;20373;-46
2021/01/02 12:34:59;;;;;;;5.32;2.70;;;21.00;40.80;;;;;;5110930;28;20031;-53
2021/01/02 12:37:25;;;;;;;7.88;2.83;;;21.00;40.90;;;;;;5113135;28;20062;-47
2021/01/02 12:39:51;;;;;;;5.82;2.28;;;21.00;40.80;;;;;;5112009;28;20103;-57
2021/01/02 12:42:17;;;;;;;7.75;2.38;;;21.00;40.90;;;;;;5112946;28;20069;-46
2021/01/02 12:44:47;;;;;;;9.73;3.00;;;21.00;41.10;;;;;;5111381;28;20032;-51
2021/01/02 12:47:16;;;;;;;9.05;3.30;;;21.10;41.10;;;;;;5112783;27;20027;-47
2021/01/02 12:49:44;;;;;;;8.02;2.90;;;21.10;41.20;;;;;;5111688;27;20072;-48
2021/01/02 12:52:11;;;;;;;10.35;3.45;;;21.20;41.40;;;;;;5091598;28;20736;-53
2021/01/02 12:54:37;;;;;;;12.55;2.80;;;21.20;41.40;;;;;;5120302;27;20031;-42
2021/01/02 12:57:04;;;;;;;8.13;2.53;;;21.20;41.30;;;;;;5111938;28;20034;-46
2021/01/02 12:59:32;;;;;;;12.90;3.03;;;21.30;41.30;;;;;;5112634;28;20066;-46
2021/01/02 13:01:59;;;;;;;10.38;2.53;;;21.30;41.40;;;;;;5111826;28;20035;-44